Time;durP1;ratioP1;P1;durP2;ratioP2;P2;SDS_P1;SDS_P2;PMS_P1;PMS_P2;Temp;Humidity;BMP_temperature;BMP_pressure;BME280_temperature;BME280_humidity;BME280_pressure;Samples;Min_cycle;Max_cycle;Signal;HPM_P1;HPM_P2
2022/10/26 00:00:06;;;;;;;;;2.00;2.00;;;;;18.91;65.70;100495.72;2096205;28;45213;-69
2022/10/26 00:01:15;;;;;;;;;2.75;2.50;;;;;18.91;66.20;100490.34;2092702;28;46797;-71
2022/10/26 00:02:15;;;;;;;;;4.75;4.50;;;;;18.90;65.87;100486.78;2096103;28;45088;-71
2022/10/26 00:03:16;;;;;;;;;5.00;5.00;;;;;18.89;65.93;100487.75;2091665;28;45714;-71
2022/10/26 00:04:16;;;;;;;;;4.00;4.00;;;;;18.88;65.62;100482.47;2098196;28;46590;-72
2022/10/26 00:05:17;;;;;;;;;4.00;4.00;;;;;18.87;65.83;100484.28;2087629;28;46611;-71
2022/10/26 00:06:19;;;;;;;;;2.00;2.00;;;;;18.87;65.96;100478.91;2084610;28;45638;-72
2022/10/26 00:07:19;;;;;;;;;3.25;1.75;;;;;18.85;65.75;100486.19;2120743;27;46512;-73
2022/10/26 00:08:20;;;;;;;;;3.00;2.00;;;;;18.84;65.99;100492.53;2120171;27;46484;-72
2022/10/26 00:09:20;;;;;;;;;3.67;3.67;;;;;18.83;66.04;100487.25;2121308;27;45476;-69
2022/10/26 00:10:20;;;;;;;;;2.67;2.67;;;;;18.83;65.64;100489.94;2121958;27;46767;-71
2022/10/26 00:11:21;;;;;;;;;2.67;2.00;;;;;18.82;65.63;100491.78;2117405;27;46403;-68
2022/10/26 00:12:22;;;;;;;;;2.00;2.00;;;;;18.80;65.64;100489.19;2119149;27;46063;-70
2022/10/26 00:13:22;;;;;;;;;3.33;3.33;;;;;18.80;65.91;100502.63;2117884;27;47048;-71
2022/10/26 00:14:22;;;;;;;;;2.67;2.67;;;;;18.80;65.57;100499.03;2121023;27;45590;-71
2022/10/26 00:15:23;;;;;;;;;2.00;2.00;;;;;18.79;66.04;100495.47;2122712;27;46403;-69
2022/10/26 00:16:26;;;;;;;;;2.67;2.67;;;;;18.77;65.68;100502.78;2119432;27;46293;-73
2022/10/26 00:17:26;;;;;;;;;2.75;2.75;;;;;18.78;66.03;100499.13;2119551;27;45586;-71
2022/10/26 00:18:27;;;;;;;;;4.00;4.00;;;;;18.77;65.95;100493.84;2117320;27;47055;-72
2022/10/26 00:19:27;;;;;;;;;4.67;3.33;;;;;18.74;65.95;100500.28;2113989;27;46519;-72
2022/10/26 00:20:27;;;;;;;;;2.33;2.33;;;;;18.74;66.12;100486.84;2117709;27;45994;-72
2022/10/26 00:21:27;;;;;;;;;3.00;3.00;;;;;18.74;65.93;100496.72;2119886;27;45526;-70
2022/10/26 00:22:28;;;;;;;;;3.00;3.00;;;;;18.74;65.97;100488.66;2121295;27;46630;-71
2022/10/26 00:23:28;;;;;;;;;3.33;3.33;;;;;18.74;66.08;100497.59;2120986;27;46222;-71
2022/10/26 00:24:28;;;;;;;;;3.33;3.33;;;;;18.74;66.27;100494.91;2119125;27;46512;-72
2022/10/26 00:25:29;;;;;;;;;3.00;3.00;;;;;18.74;65.79;100484.16;2116983;27;46125;-72
2022/10/26 00:26:29;;;;;;;;;3.33;3.33;;;;;18.75;65.69;100488.56;2120188;27;46642;-73
2022/10/26 00:27:29;;;;;;;;;4.67;3.33;;;;;18.74;65.87;100485.97;2120310;27;46145;-69
2022/10/26 00:28:30;;;;;;;;;5.00;4.00;;;;;18.75;66.20;100493.94;2121235;27;45796;-71
2022/10/26 00:29:31;;;;;;;;;5.75;4.00;;;;;18.73;66.09;100493.16;2120806;27;46872;-70
2022/10/26 00:30:31;;;;;;;;;2.00;2.00;;;;;18.73;65.91;100492.31;2119785;27;46899;-69
2022/10/26 00:31:32;;;;;;;;;6.67;5.33;;;;;18.72;66.14;100490.56;2121199;27;45833;-71
2022/10/26 00:32:33;;;;;;;;;4.00;4.00;;;;;18.70;65.64;100490.66;2118929;27;46596;-71
2022/10/26 00:33:33;;;;;;;;;3.00;3.00;;;;;18.70;65.91;100496.03;2118269;27;45474;-70
2022/10/26 00:34:34;;;;;;;;;3.33;3.00;;;;;18.70;65.76;100490.66;2114104;27;46621;-70
2022/10/26 00:35:34;;;;;;;;;4.33;4.33;;;;;18.70;66.24;100493.34;2113490;27;46508;-71
2022/10/26 00:36:35;;;;;;;;;4.00;4.00;;;;;18.71;66.20;100495.09;2114911;27;46736;-70
2022/10/26 00:37:35;;;;;;;;;4.00;4.00;;;;;18.70;66.04;100495.19;2122343;27;45656;-70
2022/10/26 00:38:36;;;;;;;;;4.67;3.33;;;;;18.70;65.99;100500.56;2118826;27;45223;-70
2022/10/26 00:39:37;;;;;;;;;4.25;4.25;;;;;18.71;66.17;100491.53;2095362;28;46157;-70
2022/10/26 00:40:37;;;;;;;;;4.00;4.00;;;;;18.70;66.07;100493.34;2095506;28;45569;-72
2022/10/26 00:41:38;;;;;;;;;4.00;3.67;;;;;18.71;65.85;100496.91;2110177;27;45747;-71
2022/10/26 00:42:38;;;;;;;;;4.00;4.00;;;;;18.70;66.18;100495.19;2110087;27;46094;-70
2022/10/26 00:43:39;;;;;;;;;5.00;4.00;;;;;18.70;66.14;100487.97;2115132;27;45439;-70
2022/10/26 00:44:42;;;;;;;;;3.00;3.00;;;;;18.70;65.96;100496.03;2119986;27;46456;-70
2022/10/26 00:45:43;;;;;;;;;3.25;3.25;;;;;18.70;66.24;100496.03;2116188;27;45823;-70
2022/10/26 00:46:44;;;;;;;;;3.00;3.00;;;;;18.69;66.13;100491.63;2119715;27;47028;-70
2022/10/26 00:47:48;;;;;;;;;4.00;3.00;;;;;18.70;66.24;100497.88;2121786;27;46296;-69
2022/10/26 00:48:54;;;;;;;;;3.00;3.00;;;;;18.69;65.87;100497.00;2117554;27;47305;-70
2022/10/26 00:49:56;;;;;;;;;2.25;2.25;;;;;18.70;66.05;100503.25;2114025;27;48127;-70
2022/10/26 00:50:59;;;;;;;;;3.75;3.75;;;;;18.70;66.08;100500.56;2116956;27;46444;-70
2022/10/26 00:52:00;;;;;;;;;2.50;2.50;;;;;18.70;65.96;100501.41;2120173;27;46640;-70
2022/10/26 00:53:03;;;;;;;;;3.33;3.33;;;;;18.72;65.85;100506.69;2121447;27;45799;-69
2022/10/26 00:54:08;;;;;;;;;6.25;5.25;;;;;18.73;66.26;100500.38;2117116;27;46575;-69
2022/10/26 00:55:08;;;;;;;;;2.00;2.00;;;;;18.74;66.10;100507.47;2117928;27;46697;-69
2022/10/26 00:56:09;;;;;;;;;3.00;2.67;;;;;18.75;65.99;100502.00;2110880;27;45162;-70
2022/10/26 00:57:11;;;;;;;;;3.33;3.33;;;;;18.76;66.17;100503.72;2104534;27;45793;-70
2022/10/26 00:58:12;;;;;;;;;4.00;4.00;;;;;18.76;65.93;100498.34;2120611;27;46626;-71
2022/10/26 00:59:15;;;;;;;;;3.00;2.50;;;;;18.74;65.75;100497.59;2119784;27;46181;-70
2022/10/26 01:00:15;;;;;;;;;4.00;4.00;;;;;18.75;66.32;100501.13;2113937;27;46071;-71
2022/10/26 01:01:15;;;;;;;;;5.33;5.33;;;;;18.74;66.13;100499.41;2114864;27;46280;-71
2022/10/26 01:02:16;;;;;;;;;3.00;3.00;;;;;18.73;65.89;100501.22;2108206;27;46185;-70
2022/10/26 01:03:17;;;;;;;;;4.33;4.33;;;;;18.73;66.20;100495.00;2105332;27;46808;-71
2022/10/26 01:04:17;;;;;;;;;4.00;4.00;;;;;18.74;65.83;100502.09;2114953;27;46092;-69
2022/10/26 01:05:18;;;;;;;;;4.00;4.00;;;;;18.75;66.27;100509.19;2122096;27;45569;-70
2022/10/26 01:06:20;;;;;;;;;3.33;3.33;;;;;18.74;66.27;100505.66;2119059;27;46462;-70
2022/10/26 01:07:21;;;;;;;;;5.00;3.00;;;;;18.74;65.86;100513.72;2120093;27;47675;-71
2022/10/26 01:08:22;;;;;;;;;1.67;1.67;;;;;18.76;66.20;100521.69;2118008;27;45972;-70
2022/10/26 01:09:23;;;;;;;;;4.00;3.75;;;;;18.75;66.04;100517.28;2119959;27;45930;-71
2022/10/26 01:10:26;;;;;;;;;3.50;3.50;;;;;18.76;66.07;100519.88;2120935;27;46797;-69
2022/10/26 01:11:26;;;;;;;;;4.00;3.00;;;;;18.77;65.95;100515.34;2117296;27;47281;-71
2022/10/26 01:12:26;;;;;;;;;2.33;2.33;;;;;18.77;65.66;100531.47;2113985;27;45658;-70
2022/10/26 01:13:32;;;;;;;;;2.00;2.00;;;;;18.78;65.94;100535.91;2116798;27;46910;-70
2022/10/26 01:14:33;;;;;;;;;3.00;3.00;;;;;18.80;65.63;100525.91;2115526;27;46673;-71
2022/10/26 01:15:47;;;;;;;;;2.00;2.00;;;;;18.80;65.83;100544.75;2120060;27;46439;-73
2022/10/26 01:17:25;;;;;;;;;5.00;4.00;;;;;18.80;66.03;100533.97;2101417;28;48614;-71
2022/10/26 01:18:57;;;;;;;;;1.50;1.50;;;;;18.79;65.92;100534.94;2095696;28;45950;-71
2022/10/26 01:20:25;;;;;;;;;4.25;3.00;;;;;18.79;65.74;100541.19;2064366;28;48013;-71
2022/10/26 01:21:56;;;;;;;;;4.75;4.75;;;;;18.81;66.27;100541.13;2057666;28;45324;-73
2022/10/26 01:23:29;;;;;;;;;3.00;3.00;;;;;18.82;65.89;100540.16;2058702;28;47915;-71
2022/10/26 01:24:54;;;;;;;;;4.25;3.25;;;;;18.82;65.83;100537.47;2049818;28;46811;-69
2022/10/26 01:26:06;;;;;;;;;3.00;3.00;;;;;18.81;66.02;100546.50;2052571;28;46615;-71
2022/10/26 01:27:35;;;;;;;;;1.75;1.75;;;;;18.79;65.88;100540.31;2054219;28;46641;-70
2022/10/26 01:28:58;;;;;;;;;4.00;3.00;;;;;18.77;65.85;100544.91;2054448;28;46738;-70
2022/10/26 01:30:20;;;;;;;;;4.00;4.00;;;;;18.76;65.69;100543.19;2054335;28;46760;-70
2022/10/26 01:31:31;;;;;;;;;4.00;4.00;;;;;18.74;65.87;100529.84;2054748;28;45783;-72
2022/10/26 01:32:40;;;;;;;;;3.00;3.00;;;;;18.74;66.11;100545.97;2053855;28;46583;-71
2022/10/26 01:34:00;;;;;;;;;5.00;3.25;;;;;18.75;66.24;100565.66;2053305;28;46396;-72
2022/10/26 01:35:06;;;;;;;;;3.50;3.50;;;;;18.74;66.13;100550.50;2048416;28;46785;-71
2022/10/26 01:36:12;;;;;;;;;4.25;3.75;;;;;18.74;66.00;100547.78;2054349;28;46716;-69
2022/10/26 01:37:20;;;;;;;;;3.00;3.00;;;;;18.73;66.05;100549.63;2054322;28;46815;-71
2022/10/26 01:38:30;;;;;;;;;5.00;3.00;;;;;18.72;66.17;100542.50;2054013;28;46467;-70
2022/10/26 01:39:41;;;;;;;;;5.75;5.25;;;;;18.72;66.37;100542.50;2054456;28;46372;-71
2022/10/26 01:40:53;;;;;;;;;6.00;2.50;;;;;18.73;66.03;100546.06;2051210;28;46429;-69
2022/10/26 01:41:59;;;;;;;;;5.25;4.75;;;;;18.73;66.51;100546.94;2050919;28;46578;-69
2022/10/26 01:43:04;;;;;;;;;3.50;3.50;;;;;18.73;66.34;100540.69;2052868;28;45863;-70
2022/10/26 01:44:17;;;;;;;;;4.50;4.50;;;;;18.72;66.12;100542.50;2051912;28;46459;-71
2022/10/26 01:45:18;;;;;;;;;1.00;1.00;;;;;18.72;66.07;100547.88;2052446;28;46978;-70
2022/10/26 01:46:22;;;;;;;;;6.67;3.67;;;;;18.71;66.14;100546.16;2054215;28;46318;-69
2022/10/26 01:47:23;;;;;;;;;4.75;3.75;;;;;18.71;66.29;100551.53;2054750;28;45595;-72
2022/10/26 01:48:26;;;;;;;;;0.50;0.50;;;;;18.73;66.35;100546.06;2051698;28;48119;-71
2022/10/26 01:49:30;;;;;;;;;4.75;4.75;;;;;18.72;66.07;100557.78;2062397;28;46691;-71
2022/10/26 01:50:31;;;;;;;;;3.25;3.00;;;;;18.72;66.35;100555.97;2070584;28;46380;-69
2022/10/26 01:51:33;;;;;;;;;5.00;3.67;;;;;18.72;66.62;100550.56;2066394;28;46380;-71
2022/10/26 01:52:33;;;;;;;;;6.00;3.75;;;;;18.72;66.40;100545.19;2069981;28;46797;-70
2022/10/26 01:53:33;;;;;;;;;3.33;3.33;;;;;18.73;66.57;100554.13;2066148;28;46250;-70
2022/10/26 01:54:35;;;;;;;;;6.00;5.00;;;;;18.74;66.41;100562.09;2064101;28;45853;-70
2022/10/26 01:55:44;;;;;;;;;5.00;4.00;;;;;18.74;66.08;100553.19;2070019;28;46583;-70
2022/10/26 01:56:52;;;;;;;;;4.25;4.00;;;;;18.74;66.38;100558.56;2062666;28;47074;-71
2022/10/26 01:58:00;;;;;;;;;4.25;4.25;;;;;18.73;66.43;100555.00;2072817;28;45045;-70
2022/10/26 01:59:18;;;;;;;;;4.50;4.25;;;;;18.75;66.58;100558.47;2078694;28;46339;-70
2022/10/26 02:00:18;;;;;;;;;4.50;3.75;;;;;18.74;66.54;100554.03;2075224;28;46673;-70
2022/10/26 02:01:45;;;;;;;;;5.00;5.00;;;;;18.75;66.74;100561.16;2078364;28;46379;-71
2022/10/26 02:02:59;;;;;;;;;3.25;2.75;;;;;18.76;66.56;100552.13;2107484;27;45148;-70
2022/10/26 02:04:45;;;;;;;;;5.00;4.00;;;;;18.79;66.39;100565.38;2106193;27;46326;-71
2022/10/26 02:06:02;;;;;;;;;6.25;5.25;;;;;18.78;66.70;100560.97;2113437;27;45902;-70
2022/10/26 02:07:19;;;;;;;;;5.75;4.50;;;;;18.79;66.71;100569.88;2118526;27;46441;-71
2022/10/26 02:08:41;;;;;;;;;5.75;5.75;;;;;18.77;66.61;100556.53;2119920;27;46629;-71
2022/10/26 02:10:09;;;;;;;;;5.00;4.75;;;;;18.78;66.48;100555.59;2115536;27;46107;-72
2022/10/26 02:11:45;;;;;;;;;3.00;3.00;;;;;18.78;66.31;100574.41;2116449;27;46533;-70
2022/10/26 02:13:17;;;;;;;;;5.50;4.00;;;;;18.77;66.72;100572.66;2113515;27;45802;-71
2022/10/26 02:14:56;;;;;;;;;3.75;3.75;;;;;18.77;66.61;100578.06;2113626;27;46714;-69
2022/10/26 02:16:18;;;;;;;;;4.00;4.00;;;;;18.77;66.45;100575.34;2113154;27;48774;-70
2022/10/26 02:17:46;;;;;;;;;3.75;3.75;;;;;18.78;66.62;100576.22;2113145;27;46984;-69
2022/10/26 02:19:07;;;;;;;;;7.25;6.50;;;;;18.79;66.47;100577.97;2115928;27;46184;-70
2022/10/26 02:20:16;;;;;;;;;3.00;3.00;;;;;18.78;66.67;100579.78;2118970;27;46595;-71
2022/10/26 02:21:23;;;;;;;;;2.75;2.75;;;;;18.79;66.59;100580.66;2118316;27;46112;-71
2022/10/26 02:22:28;;;;;;;;;4.00;4.00;;;;;18.78;66.32;100573.53;2116977;27;46827;-71
2022/10/26 02:23:33;;;;;;;;;4.00;4.00;;;;;18.78;66.68;100570.84;2118595;27;46288;-71
2022/10/26 02:24:36;;;;;;;;;6.00;4.25;;;;;18.78;66.68;100578.91;2113385;27;46417;-70
2022/10/26 02:25:44;;;;;;;;;4.75;4.25;;;;;18.76;66.65;100578.16;2118444;27;46443;-69
2022/10/26 02:26:49;;;;;;;;;3.00;3.00;;;;;18.76;66.66;100583.53;2113218;27;45138;-70
2022/10/26 02:27:54;;;;;;;;;4.00;4.00;;;;;18.75;66.79;100579.97;2121685;27;46138;-70
2022/10/26 02:29:01;;;;;;;;;3.25;3.00;;;;;18.76;66.75;100586.22;2117003;27;46823;-71
2022/10/26 02:30:04;;;;;;;;;4.25;4.25;;;;;18.76;66.64;100580.84;2121773;27;46535;-70
2022/10/26 02:31:06;;;;;;;;;3.00;3.00;;;;;18.76;66.90;100579.00;2121928;27;46660;-70
2022/10/26 02:32:07;;;;;;;;;6.25;4.00;;;;;18.77;66.48;100580.75;2121589;27;46922;-70
2022/10/26 02:33:11;;;;;;;;;4.00;4.00;;;;;18.79;66.56;100577.97;2121869;27;46928;-69
2022/10/26 02:34:17;;;;;;;;;6.00;4.75;;;;;18.79;66.75;100575.28;2116301;27;46891;-70
2022/10/26 02:35:30;;;;;;;;;4.00;4.00;;;;;18.80;66.52;100577.00;2115281;27;45794;-68
2022/10/26 02:36:35;;;;;;;;;5.50;4.75;;;;;18.81;66.86;100573.38;2113288;27;46956;-71
2022/10/26 02:37:38;;;;;;;;;3.00;3.00;;;;;18.81;66.42;100568.88;2118534;27;47443;-70
2022/10/26 02:38:41;;;;;;;;;3.75;3.75;;;;;18.81;66.56;100578.75;2120635;27;46652;-71
2022/10/26 02:39:45;;;;;;;;;2.75;2.75;;;;;18.80;66.29;100583.28;2112431;27;46330;-70
2022/10/26 02:40:50;;;;;;;;;4.00;4.00;;;;;18.81;66.75;100587.69;2104892;27;46931;-70
2022/10/26 02:41:51;;;;;;;;;3.75;3.75;;;;;18.81;66.38;100587.69;2113592;27;46447;-71
2022/10/26 02:42:54;;;;;;;;;4.00;4.00;;;;;18.81;66.78;100579.63;2119936;27;46875;-71
2022/10/26 02:44:21;;;;;;;;;5.75;4.25;;;;;18.81;66.65;100593.06;2114916;27;46741;-69
2022/10/26 02:45:26;;;;;;;;;4.75;3.75;;;;;18.81;66.86;100586.81;2094095;28;45817;-70
2022/10/26 02:46:27;;;;;;;;;2.00;2.00;;;;;18.81;66.61;100579.63;2087634;28;46790;-70
2022/10/26 02:47:28;;;;;;;;;3.00;3.00;;;;;18.82;66.51;100591.25;2086517;28;46389;-70
2022/10/26 02:48:29;;;;;;;;;4.25;3.75;;;;;18.80;66.60;100585.97;2081459;28;45988;-70
2022/10/26 02:49:30;;;;;;;;;4.00;3.33;;;;;18.80;66.71;100591.34;2080517;28;46905;-71
2022/10/26 02:50:59;;;;;;;;;4.67;4.67;;;;;18.81;66.62;100593.06;2086598;28;46498;-71
2022/10/26 02:52:23;;;;;;;;;3.00;3.00;;;;;18.82;66.49;100596.63;2063797;28;46813;-72
2022/10/26 02:53:38;;;;;;;;;3.50;3.25;;;;;18.84;66.43;100596.53;2060879;28;46538;-70
2022/10/26 02:54:44;;;;;;;;;4.75;3.00;;;;;18.84;66.51;100591.16;2061973;28;46619;-69
2022/10/26 02:55:48;;;;;;;;;3.00;3.00;;;;;18.84;66.70;100600.09;2062161;28;46072;-71
2022/10/26 02:56:58;;;;;;;;;5.50;5.50;;;;;18.85;66.42;100600.94;2062140;28;46387;-70
2022/10/26 02:58:03;;;;;;;;;4.50;4.50;;;;;18.85;66.70;100599.13;2061801;28;46940;-71
2022/10/26 02:59:06;;;;;;;;;4.00;4.00;;;;;18.86;66.69;100598.16;2062198;28;45664;-71
2022/10/26 03:00:10;;;;;;;;;2.00;2.00;;;;;18.87;66.51;100593.66;2061811;28;46470;-70
2022/10/26 03:01:12;;;;;;;;;3.75;3.00;;;;;18.87;66.31;100596.34;2065142;28;47203;-71
2022/10/26 03:02:17;;;;;;;;;4.75;3.50;;;;;18.88;66.76;100590.88;2062227;28;47079;-70
2022/10/26 03:03:18;;;;;;;;;3.75;3.75;;;;;18.87;66.56;100581.06;2061971;28;45895;-70
2022/10/26 03:04:18;;;;;;;;;4.25;3.00;;;;;18.89;66.44;100589.06;2061705;28;46832;-70
2022/10/26 03:05:22;;;;;;;;;2.00;2.00;;;;;18.89;66.23;100589.06;2061892;28;46328;-69
2022/10/26 03:06:23;;;;;;;;;3.25;3.25;;;;;18.88;66.19;100581.94;2062492;28;45572;-70
2022/10/26 03:07:25;;;;;;;;;4.00;4.00;;;;;18.89;66.45;100587.22;2062143;28;45062;-71
2022/10/26 03:08:25;;;;;;;;;3.75;2.50;;;;;18.90;66.42;100585.41;2066115;28;46512;-69
2022/10/26 03:09:26;;;;;;;;;3.00;3.00;;;;;18.89;66.34;100586.38;2064167;28;45524;-70
2022/10/26 03:10:27;;;;;;;;;3.75;3.75;;;;;18.89;66.40;100587.22;2061452;28;47007;-70
2022/10/26 03:11:27;;;;;;;;;3.33;3.33;;;;;18.89;66.34;100587.22;2061818;28;47032;-70
2022/10/26 03:12:28;;;;;;;;;3.67;3.67;;;;;18.89;66.24;100584.53;2061925;28;46701;-70
2022/10/26 03:13:28;;;;;;;;;3.33;3.00;;;;;18.89;66.09;100576.47;2053996;28;46353;-71
2022/10/26 03:14:28;;;;;;;;;4.00;4.00;;;;;18.89;66.28;100580.97;2055947;28;46860;-71
2022/10/26 03:15:29;;;;;;;;;3.00;3.00;;;;;18.90;66.26;100586.28;2071516;28;45653;-71
2022/10/26 03:16:29;;;;;;;;;3.33;3.00;;;;;18.90;66.17;100586.28;2064559;28;46488;-70
2022/10/26 03:17:29;;;;;;;;;3.00;3.00;;;;;18.91;66.20;100581.75;2064322;28;46030;-69
2022/10/26 03:18:30;;;;;;;;;4.00;2.67;;;;;18.91;66.25;100577.25;2063039;28;46979;-71
2022/10/26 03:19:30;;;;;;;;;3.00;3.00;;;;;18.92;66.14;100575.41;2063401;28;45635;-70
2022/10/26 03:20:31;;;;;;;;;3.00;3.00;;;;;18.91;66.79;100579.06;2063694;28;45211;-71
2022/10/26 03:21:31;;;;;;;;;2.00;2.00;;;;;18.92;66.04;100588.88;2063801;28;45604;-71
2022/10/26 03:22:31;;;;;;;;;4.67;3.00;;;;;18.92;66.54;100580.81;2064766;28;47296;-71
2022/10/26 03:23:32;;;;;;;;;6.33;4.67;;;;;18.93;66.32;100595.97;2074142;28;46208;-70
2022/10/26 03:24:32;;;;;;;;;2.00;2.00;;;;;18.93;66.39;100595.97;2071493;28;46928;-71
2022/10/26 03:25:32;;;;;;;;;3.00;3.00;;;;;18.93;66.57;100599.56;2066696;28;46530;-70
2022/10/26 03:26:33;;;;;;;;;3.33;2.00;;;;;18.93;65.99;100594.19;2076600;28;46580;-70
2022/10/26 03:27:34;;;;;;;;;4.67;4.67;;;;;18.94;66.01;100600.44;2071221;28;46609;-70
2022/10/26 03:28:34;;;;;;;;;5.50;3.75;;;;;18.93;66.07;100599.56;2063022;28;46931;-70
2022/10/26 03:29:34;;;;;;;;;2.67;2.67;;;;;18.92;66.14;100605.88;2085341;27;47281;-70
2022/10/26 03:30:35;;;;;;;;;3.00;3.00;;;;;18.93;66.25;100604.03;2121242;27;46992;-71
2022/10/26 03:31:35;;;;;;;;;4.00;2.67;;;;;18.94;66.52;100608.50;2114447;27;46499;-69
2022/10/26 03:32:35;;;;;;;;;2.00;1.00;;;;;18.93;66.54;100612.09;2117758;27;46519;-70
2022/10/26 03:33:35;;;;;;;;;4.00;4.00;;;;;18.92;66.13;100613.06;2116827;27;46536;-73
2022/10/26 03:34:36;;;;;;;;;2.00;2.00;;;;;18.92;66.43;100616.63;2114602;27;46000;-69
2022/10/26 03:35:36;;;;;;;;;3.00;3.00;;;;;18.92;66.25;100619.31;2120117;27;46361;-70
2022/10/26 03:36:36;;;;;;;;;5.33;3.00;;;;;18.91;66.40;100624.78;2121750;27;46771;-69
2022/10/26 03:37:37;;;;;;;;;2.00;2.00;;;;;18.90;66.12;100613.16;2114285;27;46139;-70
2022/10/26 03:38:37;;;;;;;;;3.00;3.00;;;;;18.90;66.44;100618.53;2114087;27;46900;-70
2022/10/26 03:39:37;;;;;;;;;3.33;3.33;;;;;18.90;66.18;100618.53;2113819;27;46822;-70
2022/10/26 03:40:39;;;;;;;;;5.00;3.33;;;;;18.90;66.23;100621.22;2121779;27;45819;-71
2022/10/26 03:41:40;;;;;;;;;4.50;4.50;;;;;18.90;66.48;100620.34;2119934;27;46686;-70
2022/10/26 03:42:40;;;;;;;;;3.33;2.33;;;;;18.89;66.53;100629.38;2116877;27;46179;-70
2022/10/26 03:43:40;;;;;;;;;1.00;1.00;;;;;18.89;66.44;100627.56;2118663;27;45356;-71
2022/10/26 03:44:41;;;;;;;;;4.00;3.00;;;;;18.90;66.16;100628.44;2115762;27;46574;-70
2022/10/26 03:45:41;;;;;;;;;3.00;3.00;;;;;18.90;66.36;100617.66;2122422;27;46588;-71
2022/10/26 03:46:41;;;;;;;;;4.00;2.00;;;;;18.90;66.77;100625.75;2119479;27;45879;-70
2022/10/26 03:47:46;;;;;;;;;2.00;2.00;;;;;18.90;66.59;100629.28;2117900;27;45641;-71
2022/10/26 03:48:47;;;;;;;;;2.50;2.00;;;;;18.88;66.63;100627.66;2117144;27;46822;-71
2022/10/26 03:49:47;;;;;;;;;4.67;3.00;;;;;18.88;66.37;100631.22;2120404;27;45287;-71
2022/10/26 03:50:47;;;;;;;;;3.00;3.00;;;;;18.87;66.28;100634.84;2113817;27;46320;-70
2022/10/26 03:51:47;;;;;;;;;3.67;2.67;;;;;18.86;66.24;100627.75;2119999;27;46094;-70
2022/10/26 03:52:49;;;;;;;;;2.67;2.67;;;;;18.86;66.60;100635.81;2118392;27;46765;-70
2022/10/26 03:53:49;;;;;;;;;4.00;4.00;;;;;18.86;66.61;100641.19;2118540;27;46532;-71
2022/10/26 03:54:50;;;;;;;;;4.33;4.33;;;;;18.84;66.70;100635.03;2112309;27;46318;-71
2022/10/26 03:55:50;;;;;;;;;5.25;3.75;;;;;18.86;66.54;100648.38;2107554;27;46903;-70
2022/10/26 03:56:51;;;;;;;;;2.00;2.00;;;;;18.86;66.58;100653.78;2116544;27;46103;-71
2022/10/26 03:57:52;;;;;;;;;3.25;3.25;;;;;18.85;66.83;100646.66;2113799;27;45826;-68
2022/10/26 03:58:52;;;;;;;;;4.00;3.00;;;;;18.85;66.56;100652.03;2107964;27;46305;-71
2022/10/26 03:59:52;;;;;;;;;3.33;3.33;;;;;18.85;66.57;100657.41;2119707;27;46323;-71
2022/10/26 04:00:53;;;;;;;;;3.33;3.33;;;;;18.85;66.74;100657.41;2117243;27;45186;-69
2022/10/26 04:01:53;;;;;;;;;3.00;3.00;;;;;18.84;66.27;100656.56;2122559;27;46386;-71
2022/10/26 04:02:56;;;;;;;;;2.00;2.00;;;;;18.84;66.64;100656.56;2116791;27;45680;-71
2022/10/26 04:03:56;;;;;;;;;2.50;2.00;;;;;18.83;66.25;100660.19;2114953;27;45841;-72
2022/10/26 04:04:57;;;;;;;;;2.67;2.67;;;;;18.83;66.36;100662.03;2119198;27;46567;-71
2022/10/26 04:06:01;;;;;;;;;2.00;2.00;;;;;18.83;66.21;100656.63;2117157;27;46532;-70
2022/10/26 04:07:01;;;;;;;;;4.25;4.00;;;;;18.81;66.70;100670.19;2119932;27;45962;-71
2022/10/26 04:08:04;;;;;;;;;2.33;2.33;;;;;18.81;66.54;100672.88;2118043;27;46718;-70
2022/10/26 04:09:07;;;;;;;;;4.00;4.00;;;;;18.80;66.29;100668.41;2118651;27;46171;-70
2022/10/26 04:10:07;;;;;;;;;2.25;2.25;;;;;18.80;66.79;100661.25;2121596;27;46865;-70
2022/10/26 04:11:08;;;;;;;;;3.33;3.00;;;;;18.79;66.72;100662.16;2115007;27;46432;-69
2022/10/26 04:12:08;;;;;;;;;4.00;4.00;;;;;18.79;66.90;100664.84;2116316;27;45829;-70
2022/10/26 04:13:10;;;;;;;;;1.33;1.33;;;;;18.79;66.69;100664.84;2113244;27;46188;-70
2022/10/26 04:14:10;;;;;;;;;3.50;3.50;;;;;18.79;66.61;100669.38;2113407;27;46414;-69
2022/10/26 04:15:11;;;;;;;;;3.00;3.00;;;;;18.79;66.43;100666.69;2121511;27;45967;-71
2022/10/26 04:16:11;;;;;;;;;3.67;3.67;;;;;18.81;66.88;100662.09;2114236;27;45727;-71
2022/10/26 04:17:11;;;;;;;;;1.67;1.67;;;;;18.80;66.71;100671.09;2113968;27;45925;-71
2022/10/26 04:18:12;;;;;;;;;2.00;2.00;;;;;18.80;66.69;100671.09;2115086;27;46335;-70
2022/10/26 04:19:12;;;;;;;;;5.33;4.33;;;;;18.80;66.65;100672.00;2113721;27;46424;-70
2022/10/26 04:20:13;;;;;;;;;5.33;4.00;;;;;18.80;66.61;100671.09;2116783;27;47126;-71
2022/10/26 04:21:13;;;;;;;;;4.00;2.67;;;;;18.78;66.63;100665.81;2122591;27;46374;-70
2022/10/26 04:22:14;;;;;;;;;4.00;4.00;;;;;18.79;66.64;100674.75;2116461;27;46342;-70
2022/10/26 04:23:16;;;;;;;;;4.00;4.00;;;;;18.78;66.63;100671.19;2093544;28;45393;-71
2022/10/26 04:24:16;;;;;;;;;1.75;1.75;;;;;18.77;66.53;100685.59;2089680;27;46691;-70
2022/10/26 04:25:17;;;;;;;;;3.00;3.00;;;;;18.76;66.52;100681.16;2118607;27;46273;-70
2022/10/26 04:26:17;;;;;;;;;3.00;3.00;;;;;18.76;66.50;100683.00;2113703;27;46340;-70
2022/10/26 04:27:18;;;;;;;;;4.67;4.67;;;;;18.76;66.42;100680.31;2113707;27;46180;-70
2022/10/26 04:28:18;;;;;;;;;2.33;2.33;;;;;18.76;66.63;100683.84;2119429;27;46447;-71
2022/10/26 04:29:18;;;;;;;;;3.67;3.67;;;;;18.76;66.27;100688.38;2121718;27;46036;-69
2022/10/26 04:30:19;;;;;;;;;3.33;2.00;;;;;18.76;66.39;100683.84;2119988;27;46634;-71
2022/10/26 04:31:20;;;;;;;;;4.33;3.33;;;;;18.76;66.43;100683.00;2122419;27;46345;-70
2022/10/26 04:32:20;;;;;;;;;2.67;2.00;;;;;18.76;66.34;100693.75;2116477;27;45193;-70
2022/10/26 04:33:20;;;;;;;;;4.67;3.00;;;;;18.75;66.86;100686.63;2115966;27;46141;-69
2022/10/26 04:34:21;;;;;;;;;2.00;2.00;;;;;18.75;66.46;100695.56;2116433;27;45725;-70
2022/10/26 04:35:21;;;;;;;;;2.67;2.67;;;;;18.74;66.66;100696.53;2113533;27;46509;-71
2022/10/26 04:36:21;;;;;;;;;3.00;3.00;;;;;18.75;66.44;100703.63;2114625;27;46529;-69
2022/10/26 04:37:22;;;;;;;;;2.00;2.00;;;;;18.74;66.75;100704.59;2118735;27;46181;-70
2022/10/26 04:38:22;;;;;;;;;2.33;2.33;;;;;18.74;66.40;100704.59;2119052;27;46604;-69
2022/10/26 04:39:22;;;;;;;;;3.67;3.00;;;;;18.73;66.72;100702.84;2120277;27;45046;-71
2022/10/26 04:40:23;;;;;;;;;3.00;3.00;;;;;18.72;67.03;100702.94;2116416;27;46198;-71
2022/10/26 04:41:23;;;;;;;;;2.00;2.00;;;;;18.72;66.47;100716.38;2121061;27;46473;-69
2022/10/26 04:42:23;;;;;;;;;2.00;2.00;;;;;18.72;66.46;100711.00;2116472;27;46358;-69
2022/10/26 04:43:24;;;;;;;;;4.67;4.67;;;;;18.71;66.37;100712.84;2102009;28;46907;-70
2022/10/26 04:44:24;;;;;;;;;2.00;2.00;;;;;18.71;66.67;100717.34;2103342;28;46219;-71
2022/10/26 04:45:27;;;;;;;;;1.00;1.00;;;;;18.71;66.77;100709.28;2120924;27;46669;-70
2022/10/26 04:46:27;;;;;;;;;1.50;1.50;;;;;18.71;66.50;100717.34;2117615;27;46274;-71
2022/10/26 04:47:28;;;;;;;;;3.33;2.67;;;;;18.71;66.51;100715.50;2119237;27;46294;-70
2022/10/26 04:48:28;;;;;;;;;1.67;1.33;;;;;18.71;66.67;100714.66;2113920;27;46752;-71
2022/10/26 04:49:28;;;;;;;;;5.00;3.00;;;;;18.70;66.49;100719.16;2113309;27;46913;-71
2022/10/26 04:50:29;;;;;;;;;4.00;4.00;;;;;18.70;66.49;100721.84;2113989;27;45523;-70
2022/10/26 04:51:29;;;;;;;;;2.33;2.33;;;;;18.70;66.45;100724.53;2118895;27;46428;-71
2022/10/26 04:52:30;;;;;;;;;7.00;4.33;;;;;18.69;66.97;100730.00;2121978;27;46703;-70
2022/10/26 04:53:30;;;;;;;;;2.00;2.00;;;;;18.68;66.28;100728.28;2117698;27;47670;-69
2022/10/26 04:54:30;;;;;;;;;4.33;4.33;;;;;18.67;66.66;100727.38;2119050;27;46621;-69
2022/10/26 04:55:31;;;;;;;;;5.67;4.33;;;;;18.66;66.33;100736.38;2117603;27;46481;-71
2022/10/26 04:56:32;;;;;;;;;5.33;4.33;;;;;18.66;66.65;100739.06;2121915;27;46687;-70
2022/10/26 04:57:34;;;;;;;;;5.50;2.25;;;;;18.65;66.61;100744.53;2120227;27;46572;-70
2022/10/26 04:58:34;;;;;;;;;3.50;3.25;;;;;18.64;66.85;100746.38;2106965;27;46728;-70